Time;durP1;ratioP1;P1;durP2;ratioP2;P2;SDS_P1;SDS_P2;PMS_P1;PMS_P2;Temp;Humidity;BMP_temperature;BMP_pressure;BME280_temperature;BME280_humidity;BME280_pressure;Samples;Min_cycle;Max_cycle;Signal;HPM_P1;HPM_P2
2022/03/19 00:00:28;;;;;;;;;;;128.90;2227.20;;;;;;5066999;28;19944;-76
2022/03/19 00:02:54;;;;;;;;;;;128.90;2252.80;;;;;;5065270;28;19995;-78
2022/03/19 00:05:19;;;;;;;;;;;128.90;2252.80;;;;;;5065446;28;19912;-77
2022/03/19 00:07:45;;;;;;;;;;;128.90;2252.80;;;;;;5067455;28;19908;-77
2022/03/19 00:10:11;;;;;;;;;;;128.90;2252.80;;;;;;5074758;28;19904;-76
2022/03/19 00:12:38;;;;;;;;;;;153.60;2252.80;;;;;;5075314;28;19966;-78
2022/03/19 00:15:04;;;;;;;;;;;128.90;2252.80;;;;;;5073249;28;19912;-77
2022/03/19 00:17:30;;;;;;;;;;;128.80;2252.80;;;;;;5065826;28;19904;-77
2022/03/19 00:19:55;;;;;;;;;;;128.90;2252.80;;;;;;5064849;28;19912;-78
2022/03/19 00:22:21;;;;;;;;;;;153.60;2252.80;;;;;;5062192;28;20176;-77
2022/03/19 00:24:47;;;;;;;;;;;128.90;2252.80;;;;;;5058353;28;19905;-76
2022/03/19 00:27:12;;;;;;;;;;;153.60;2252.80;;;;;;5067282;28;19912;-77
2022/03/19 00:29:38;;;;;;;;;;;128.90;2252.80;;;;;;5061435;28;19905;-76
2022/03/19 00:32:03;;;;;;;;;;;153.60;2227.20;;;;;;5062137;28;20368;-77
2022/03/19 00:34:29;;;;;;;;;;;153.70;2227.20;;;;;;5062726;28;19908;-79
2022/03/19 00:36:56;;;;;;;;;;;153.70;2227.20;;;;;;5071104;28;20284;-77
2022/03/19 00:39:21;;;;;;;;;;;153.60;2252.80;;;;;;5071309;28;19958;-76
2022/03/19 00:41:47;;;;;;;;;;;128.90;2252.80;;;;;;5087290;28;19905;-77
2022/03/19 00:44:12;;;;;;;;;;;128.90;2252.80;;;;;;5078006;28;19909;-76
2022/03/19 00:46:38;;;;;;;;;;;128.90;2252.80;;;;;;5078359;28;20356;-78
2022/03/19 00:49:04;;;;;;;;;;;153.60;2252.80;;;;;;5078712;28;19962;-78
2022/03/19 00:51:31;;;;;;;;;;;153.60;2227.20;;;;;;5078157;28;19923;-78
2022/03/19 00:53:56;;;;;;;;;;;153.70;2227.20;;;;;;5076525;28;19915;-76
2022/03/19 00:56:22;;;;;;;;;;;153.60;2227.20;;;;;;5078415;28;19912;-77
2022/03/19 00:58:48;;;;;;;;;;;153.60;2201.60;;;;;;5078533;28;19971;-78
2022/03/19 01:01:13;;;;;;;;;;;153.70;2201.60;;;;;;5078378;28;19908;-77
2022/03/19 01:03:39;;;;;;;;;;;153.60;2201.60;;;;;;5078125;28;20280;-76
2022/03/19 01:06:04;;;;;;;;;;;153.60;2227.20;;;;;;5078424;28;19911;-78
2022/03/19 01:08:30;;;;;;;;;;;128.90;2252.80;;;;;;5072415;28;19939;-77
2022/03/19 01:10:56;;;;;;;;;;;128.80;2252.80;;;;;;5079519;28;20367;-76
2022/03/19 01:13:21;;;;;;;;;;;128.90;2252.80;;;;;;5075247;28;20451;-77
2022/03/19 01:15:47;;;;;;;;;;;128.70;2252.80;;;;;;5074793;28;19995;-77
2022/03/19 01:18:13;;;;;;;;;;;128.70;2252.80;;;;;;5075034;28;19912;-76
2022/03/19 01:20:38;;;;;;;;;;;128.80;2252.80;;;;;;5071533;28;19905;-78
2022/03/19 01:23:04;;;;;;;;;;;128.70;2252.80;;;;;;5075083;28;19904;-77
2022/03/19 01:25:30;;;;;;;;;;;128.80;2252.80;;;;;;5076186;28;19958;-76
2022/03/19 01:27:55;;;;;;;;;;;128.80;2252.80;;;;;;5076332;28;19931;-78
2022/03/19 01:30:22;;;;;;;;;;;128.90;2252.80;;;;;;5076216;28;19970;-77
2022/03/19 01:32:48;;;;;;;;;;;128.60;2252.80;;;;;;5076304;28;19915;-78
2022/03/19 01:35:16;;;;;;;;;;;128.70;2252.80;;;;;;5074888;28;19951;-76
2022/03/19 01:37:41;;;;;;;;;;;128.40;2252.80;;;;;;5076428;28;19911;-78
2022/03/19 01:40:09;;;;;;;;;;;128.10;2252.80;;;;;;5075090;28;20279;-77
2022/03/19 01:42:35;;;;;;;;;;;103.30;2227.20;;;;;;5074944;28;19974;-77
2022/03/19 01:45:01;;;;;;;;;;;103.10;2227.20;;;;;;5075014;28;19939;-77
2022/03/19 01:47:28;;;;;;;;;;;103.00;2227.20;;;;;;5076253;28;19904;-78
2022/03/19 01:49:54;;;;;;;;;;;103.10;2227.20;;;;;;5075694;28;20372;-77
2022/03/19 01:52:20;;;;;;;;;;;103.20;2227.20;;;;;;5076083;28;19909;-77
2022/03/19 01:54:47;;;;;;;;;;;103.20;2227.20;;;;;;5074594;28;19911;-77
2022/03/19 01:57:14;;;;;;;;;;;103.30;2227.20;;;;;;5074684;28;19927;-76
2022/03/19 01:59:40;;;;;;;;;;;128.10;2252.80;;;;;;5074481;28;19905;-78
2022/03/19 02:02:07;;;;;;;;;;;128.30;2252.80;;;;;;5074360;28;20375;-77
2022/03/19 02:04:36;;;;;;;;;;;128.40;2252.80;;;;;;5074615;28;20006;-77
2022/03/19 02:07:02;;;;;;;;;;;128.40;2252.80;;;;;;5074250;28;19961;-77
2022/03/19 02:09:28;;;;;;;;;;;128.20;2252.80;;;;;;5074379;28;19911;-78
2022/03/19 02:11:54;;;;;;;;;;;103.20;2227.20;;;;;;5074238;28;19999;-77
2022/03/19 02:14:20;;;;;;;;;;;128.60;2252.80;;;;;;5074391;28;19904;-78
2022/03/19 02:16:46;;;;;;;;;;;128.10;2252.80;;;;;;5075545;28;19920;-76
2022/03/19 02:19:11;;;;;;;;;;;128.40;2252.80;;;;;;5074175;28;19908;-78
2022/03/19 02:21:41;;;;;;;;;;;128.50;2252.80;;;;;;5073135;28;20399;-77
2022/03/19 02:26:51;;;;;;;;;;;128.30;2252.80;;;;;;5075557;28;19938;-78
2022/03/19 02:29:16;;;;;;;;;;;128.10;2252.80;;;;;;5075078;28;19905;-77
2022/03/19 02:31:44;;;;;;;;;;;103.10;2227.20;;;;;;5073807;28;19912;-78
2022/03/19 02:34:09;;;;;;;;;;;103.20;2227.20;;;;;;5075300;28;19943;-76
2022/03/19 02:36:35;;;;;;;;;;;128.00;2252.80;;;;;;5074925;28;19970;-77
2022/03/19 02:39:11;;;;;;;;;;;103.20;2227.20;;;;;;5073656;28;20240;-78
2022/03/19 02:41:40;;;;;;;;;;;103.10;2227.20;;;;;;5073791;28;19952;-77
2022/03/19 02:44:06;;;;;;;;;;;102.80;2227.20;;;;;;5073755;28;20318;-78
2022/03/19 02:46:42;;;;;;;;;;;102.90;2227.20;;;;;;5073273;28;19908;-78
2022/03/19 02:49:08;;;;;;;;;;;103.10;2227.20;;;;;;5073714;28;19905;-78
2022/03/19 02:51:34;;;;;;;;;;;103.20;2227.20;;;;;;5073265;28;19939;-77
2022/03/19 02:54:01;;;;;;;;;;;103.20;2227.20;;;;;;5073554;28;20245;-77
2022/03/19 02:56:27;;;;;;;;;;;103.20;2227.20;;;;;;5073753;28;19913;-76
2022/03/19 02:58:52;;;;;;;;;;;103.30;2227.20;;;;;;5074439;28;20367;-77
2022/03/19 03:01:18;;;;;;;;;;;103.30;2227.20;;;;;;5074451;28;19909;-78
2022/03/19 03:03:43;;;;;;;;;;;128.00;2252.80;;;;;;5074619;28;19908;-78
2022/03/19 03:06:09;;;;;;;;;;;103.30;2227.20;;;;;;5074383;28;19998;-78
2022/03/19 03:08:34;;;;;;;;;;;103.00;2227.20;;;;;;5074539;28;19987;-77
2022/03/19 03:11:01;;;;;;;;;;;102.80;2227.20;;;;;;5074410;28;19911;-78
2022/03/19 03:13:26;;;;;;;;;;;102.70;2227.20;;;;;;5073170;28;19904;-77
2022/03/19 03:15:52;;;;;;;;;;;102.60;2227.20;;;;;;5074458;28;19923;-77
2022/03/19 03:18:18;;;;;;;;;;;102.40;2227.20;;;;;;5072829;28;19905;-78
2022/03/19 03:20:44;;;;;;;;;;;77.50;2227.20;;;;;;5072878;28;19904;-77
2022/03/19 03:23:10;;;;;;;;;;;77.20;2227.20;;;;;;5074436;28;19905;-77
2022/03/19 03:25:35;;;;;;;;;;;77.00;2227.20;;;;;;5074162;28;19927;-77
2022/03/19 03:28:01;;;;;;;;;;;76.80;2227.20;;;;;;5074250;28;19904;-78
2022/03/19 03:30:27;;;;;;;;;;;76.90;2227.20;;;;;;5073053;28;19908;-77
2022/03/19 03:32:52;;;;;;;;;;;77.00;2227.20;;;;;;5073746;28;19914;-78
2022/03/19 03:35:18;;;;;;;;;;;77.30;2227.20;;;;;;5072624;28;20420;-78
2022/03/19 03:37:43;;;;;;;;;;;77.50;2227.20;;;;;;5074017;28;19944;-78
2022/03/19 03:40:09;;;;;;;;;;;77.20;2227.20;;;;;;5074344;28;19932;-78
2022/03/19 03:42:38;;;;;;;;;;;77.00;2227.20;;;;;;5074436;28;19905;-77
2022/03/19 03:45:04;;;;;;;;;;;77.20;2227.20;;;;;;5074183;28;19904;-78
2022/03/19 03:47:29;;;;;;;;;;;77.40;2227.20;;;;;;5073790;28;19927;-77
2022/03/19 03:49:55;;;;;;;;;;;77.00;2227.20;;;;;;5072278;28;20404;-77
2022/03/19 03:52:21;;;;;;;;;;;77.20;2227.20;;;;;;5073775;28;19908;-77
2022/03/19 03:54:46;;;;;;;;;;;77.30;2227.20;;;;;;5073847;28;20276;-77
2022/03/19 03:57:12;;;;;;;;;;;77.00;2227.20;;;;;;5073589;28;19916;-77
2022/03/19 03:59:37;;;;;;;;;;;52.10;2227.20;;;;;;5074091;28;19905;-78
2022/03/19 04:02:03;;;;;;;;;;;51.70;2227.20;;;;;;5073736;28;19908;-76
2022/03/19 04:04:29;;;;;;;;;;;51.30;2227.20;;;;;;5073823;28;20034;-77
2022/03/19 04:06:54;;;;;;;;;;;26.00;2201.60;;;;;;5072621;28;19940;-77
2022/03/19 04:09:20;;;;;;;;;;;26.30;2201.60;;;;;;5073746;28;19939;-77
2022/03/19 04:11:46;;;;;;;;;;;26.50;2201.60;;;;;;5073798;28;20003;-77
2022/03/19 04:14:11;;;;;;;;;;;26.50;2201.60;;;;;;5072492;28;19912;-77
2022/03/19 04:16:37;;;;;;;;;;;26.40;2201.60;;;;;;5072261;28;19920;-77
2022/03/19 04:19:03;;;;;;;;;;;26.30;2201.60;;;;;;5073745;28;20268;-77
2022/03/19 04:21:29;;;;;;;;;;;26.30;2201.60;;;;;;5073553;28;19905;-77
2022/03/19 04:23:54;;;;;;;;;;;26.20;2201.60;;;;;;5073548;28;19955;-77
2022/03/19 04:26:20;;;;;;;;;;;26.50;2201.60;;;;;;5073614;28;19912;-76
2022/03/19 04:28:46;;;;;;;;;;;26.20;2201.60;;;;;;5071884;28;19904;-78
2022/03/19 04:31:11;;;;;;;;;;;25.90;2201.60;;;;;;5073453;28;19978;-77
2022/03/19 04:33:37;;;;;;;;;;;26.00;2201.60;;;;;;5072658;28;19995;-78
2022/03/19 04:38:46;;;;;;;;;;;0.60;2201.60;;;;;;5073821;28;19911;-76
2022/03/19 04:41:13;;;;;;;;;;;0.30;2201.60;;;;;;5072332;28;20288;-77
2022/03/19 04:43:38;;;;;;;;;;;0.30;2201.60;;;;;;5072192;28;19904;-77
2022/03/19 04:46:04;;;;;;;;;;;0.30;2201.60;;;;;;5075587;28;19911;-77
2022/03/19 04:48:30;;;;;;;;;;;0.40;2201.60;;;;;;5076001;28;19904;-77
2022/03/19 04:50:56;;;;;;;;;;;0.80;2201.60;;;;;;5076895;28;19940;-76
2022/03/19 04:53:23;;;;;;;;;;;25.70;2201.60;;;;;;5075237;28;19913;-76
2022/03/19 04:55:49;;;;;;;;;;;25.90;2201.60;;;;;;5077087;28;19923;-77
2022/03/19 04:58:14;;;;;;;;;;;26.10;2201.60;;;;;;5076053;28;19905;-78
2022/03/19 05:00:40;;;;;;;;;;;26.40;2201.60;;;;;;5076820;28;20263;-77
2022/03/19 05:03:06;;;;;;;;;;;51.20;2227.20;;;;;;5076928;28;19912;-76
2022/03/19 05:05:31;;;;;;;;;;;51.30;2227.20;;;;;;5075651;28;20341;-77
2022/03/19 05:07:57;;;;;;;;;;;51.40;2227.20;;;;;;5076849;28;19904;-77
2022/03/19 05:13:07;;;;;;;;;;;51.60;2227.20;;;;;;5076682;28;19930;-77
2022/03/19 05:15:33;;;;;;;;;;;51.70;2227.20;;;;;;5076692;28;19913;-77
2022/03/19 05:17:59;;;;;;;;;;;51.80;2227.20;;;;;;5075383;28;19905;-78
2022/03/19 05:20:24;;;;;;;;;;;51.80;2227.20;;;;;;5076583;28;19904;-77
2022/03/19 05:22:50;;;;;;;;;;;51.80;2227.20;;;;;;5076292;28;19905;-77
2022/03/19 05:25:15;;;;;;;;;;;51.80;2227.20;;;;;;5075003;28;19912;-77
2022/03/19 05:27:41;;;;;;;;;;;51.90;2227.20;;;;;;5075351;28;19904;-77
2022/03/19 05:30:08;;;;;;;;;;;52.10;2227.20;;;;;;5074877;28;19904;-76
2022/03/19 05:32:33;;;;;;;;;;;76.80;2227.20;;;;;;5076291;28;19919;-77
2022/03/19 05:35:00;;;;;;;;;;;77.00;2227.20;;;;;;5076234;28;19905;-76
2022/03/19 05:37:25;;;;;;;;;;;77.10;2227.20;;;;;;5076212;28;19909;-77
2022/03/19 05:39:54;;;;;;;;;;;77.20;2227.20;;;;;;5075288;28;20054;-77
2022/03/19 05:42:19;;;;;;;;;;;77.20;2227.20;;;;;;5075017;28;19927;-77
2022/03/19 05:44:45;;;;;;;;;;;77.30;2227.20;;;;;;5076260;28;19905;-77
2022/03/19 05:47:10;;;;;;;;;;;77.30;2227.20;;;;;;5074808;28;19905;-76
2022/03/19 05:49:36;;;;;;;;;;;77.30;2227.20;;;;;;5074892;28;19971;-78
2022/03/19 05:52:02;;;;;;;;;;;77.40;2227.20;;;;;;5075458;28;20007;-77
2022/03/19 05:54:27;;;;;;;;;;;77.40;2227.20;;;;;;5075806;28;19951;-77
2022/03/19 05:56:53;;;;;;;;;;;77.50;2227.20;;;;;;5074441;28;19991;-77
2022/03/19 05:59:19;;;;;;;;;;;77.60;2227.20;;;;;;5074576;28;19908;-77
2022/03/19 06:01:45;;;;;;;;;;;77.70;2227.20;;;;;;5074568;28;19908;-77
2022/03/19 06:04:11;;;;;;;;;;;102.40;2227.20;;;;;;5074600;28;20340;-78
2022/03/19 06:06:36;;;;;;;;;;;102.50;2227.20;;;;;;5074890;28;19944;-78
2022/03/19 06:09:02;;;;;;;;;;;77.60;2227.20;;;;;;5074214;28;19950;-77
2022/03/19 06:11:28;;;;;;;;;;;77.60;2227.20;;;;;;5074257;28;19993;-77
2022/03/19 06:13:53;;;;;;;;;;;77.50;2227.20;;;;;;5075533;28;20011;-77
2022/03/19 06:16:19;;;;;;;;;;;77.40;2227.20;;;;;;5075511;28;19912;-76
2022/03/19 06:18:50;;;;;;;;;;;77.20;2227.20;;;;;;5075383;28;20280;-78
2022/03/19 06:21:16;;;;;;;;;;;77.00;2227.20;;;;;;5075578;28;19904;-77
2022/03/19 06:23:41;;;;;;;;;;;77.10;2227.20;;;;;;5075271;28;19911;-76
2022/03/19 06:26:07;;;;;;;;;;;77.20;2227.20;;;;;;5075151;28;19904;-76
2022/03/19 06:28:32;;;;;;;;;;;77.20;2227.20;;;;;;5073993;28;19987;-76
2022/03/19 06:30:58;;;;;;;;;;;77.20;2227.20;;;;;;5073852;28;19915;-77
2022/03/19 06:33:24;;;;;;;;;;;77.30;2227.20;;;;;;5075044;28;19908;-77
2022/03/19 06:38:33;;;;;;;;;;;77.30;2227.20;;;;;;5075166;28;20471;-76
2022/03/19 06:40:59;;;;;;;;;;;77.50;2227.20;;;;;;5073946;28;19955;-78
2022/03/19 06:43:26;;;;;;;;;;;77.60;2227.20;;;;;;5073786;28;20352;-77
2022/03/19 06:45:51;;;;;;;;;;;77.70;2227.20;;;;;;5073821;28;20332;-76
2022/03/19 06:48:17;;;;;;;;;;;102.50;2227.20;;;;;;5073553;28;19911;-77
2022/03/19 06:50:43;;;;;;;;;;;102.60;2227.20;;;;;;5073611;28;20326;-77
2022/03/19 06:53:08;;;;;;;;;;;102.60;2227.20;;;;;;5075209;28;19987;-78
2022/03/19 06:55:34;;;;;;;;;;;103.10;2227.20;;;;;;5074386;28;19912;-79
2022/03/19 06:57:59;;;;;;;;;;;102.90;2227.20;;;;;;5073388;28;20396;-78
2022/03/19 07:00:25;;;;;;;;;;;103.10;2201.60;;;;;;5074541;28;19931;-78
2022/03/19 07:02:52;;;;;;;;;;;103.30;2201.60;;;;;;5074769;28;19931;-80
2022/03/19 07:05:21;;;;;;;;;;;103.20;2227.20;;;;;;5073698;28;19936;-80
2022/03/19 07:07:48;;;;;;;;;;;128.20;2201.60;;;;;;5073213;28;19905;-80
2022/03/19 07:10:15;;;;;;;;;;;128.50;2150.40;;;;;;5073408;28;19904;-80
2022/03/19 07:12:42;;;;;;;;;;;128.60;2150.40;;;;;;5073789;28;19993;-78
2022/03/19 07:15:08;;;;;;;;;;;128.50;2073.60;;;;;;5073763;28;19904;-80
2022/03/19 07:17:34;;;;;;;;;;;128.70;2073.60;;;;;;5073820;28;19957;-81
2022/03/19 07:20:00;;;;;;;;;;;128.80;2099.20;;;;;;5074045;28;20352;-81
2022/03/19 07:22:26;;;;;;;;;;;128.80;2124.80;;;;;;5073469;28;19904;-81
2022/03/19 07:24:51;;;;;;;;;;;153.80;2099.20;;;;;;5073539;28;19904;-81
2022/03/19 07:27:17;;;;;;;;;;;153.80;2048.00;;;;;;5073636;28;19904;-80
2022/03/19 07:29:42;;;;;;;;;;;153.90;2073.60;;;;;;5073599;28;20356;-81
2022/03/19 07:32:10;;;;;;;;;;;154.40;1996.80;;;;;;5072925;28;19931;-80
2022/03/19 07:34:39;;;;;;;;;;;154.30;1996.80;;;;;;5073588;28;20387;-80
2022/03/19 07:37:04;;;;;;;;;;;154.50;1971.20;;;;;;5073609;28;19912;-81
2022/03/19 07:39:30;;;;;;;;;;;154.50;1971.20;;;;;;5074613;28;19916;-81
2022/03/19 07:41:56;;;;;;;;;;;154.50;1971.20;;;;;;5074412;28;19905;-83
2022/03/19 07:44:21;;;;;;;;;;;179.30;1971.20;;;;;;5078938;28;19908;-78
2022/03/19 07:46:47;;;;;;;;;;;179.50;1920.00;;;;;;5073429;28;19935;-81
2022/03/19 07:49:12;;;;;;;;;;;179.60;1894.40;;;;;;5073380;28;19915;-80
2022/03/19 07:51:38;;;;;;;;;;;179.70;1843.20;;;;;;5074348;28;19990;-79
2022/03/19 07:54:04;;;;;;;;;;;179.90;1817.60;;;;;;5072824;28;19905;-79
2022/03/19 07:56:30;;;;;;;;;;;179.80;1843.20;;;;;;5072836;28;20269;-79
2022/03/19 07:58:55;;;;;;;;;;;180.00;1792.00;;;;;;5073169;28;19928;-79
2022/03/19 08:01:21;;;;;;;;;;;180.10;1766.40;;;;;;5072580;28;19931;-78
2022/03/19 08:03:47;;;;;;;;;;;180.00;1843.20;;;;;;5073341;28;19908;-80
2022/03/19 08:06:13;;;;;;;;;;;179.80;1817.60;;;;;;5074202;28;20375;-80
2022/03/19 08:08:39;;;;;;;;;;;180.00;1817.60;;;;;;5074092;28;19905;-80
2022/03/19 08:11:05;;;;;;;;;;;180.10;1843.20;;;;;;5073000;28;19912;-80
2022/03/19 08:13:30;;;;;;;;;;;204.90;1766.40;;;;;;5072792;28;19908;-80
2022/03/19 08:15:56;;;;;;;;;;;204.80;1766.40;;;;;;5072816;28;19912;-80
2022/03/19 08:18:23;;;;;;;;;;;204.90;1817.60;;;;;;5073695;28;19961;-80
2022/03/19 08:20:49;;;;;;;;;;;205.00;1817.60;;;;;;5076781;28;19911;-79
2022/03/19 08:23:19;;;;;;;;;;;205.00;1817.60;;;;;;5076585;28;19904;-79
2022/03/19 08:25:45;;;;;;;;;;;205.20;1817.60;;;;;;5076775;28;19960;-80
2022/03/19 08:28:10;;;;;;;;;;;205.00;1843.20;;;;;;5076890;28;19904;-78
2022/03/19 08:30:36;;;;;;;;;;;205.10;1843.20;;;;;;5076657;28;20277;-80
2022/03/19 08:33:02;;;;;;;;;;;205.20;1817.60;;;;;;5076531;28;20015;-79
2022/03/19 08:35:28;;;;;;;;;;;205.30;1843.20;;;;;;5076141;28;20008;-80
2022/03/19 08:40:15;;;;;;;;;;;205.30;1843.20;;;;;;5076615;28;19905;-80
2022/03/19 08:40:39;;;;;;;;;;;205.40;1817.60;;;;;;5077837;28;20341;-80
2022/03/19 08:43:05;;;;;;;;;;;205.60;1817.60;;;;;;5076779;28;19954;-79
2022/03/19 08:45:31;;;;;;;;;;;205.60;1817.60;;;;;;5076412;28;19939;-77
2022/03/19 08:47:56;;;;;;;;;;;230.40;1792.00;;;;;;5076796;28;20009;-79
2022/03/19 08:50:24;;;;;;;;;;;230.40;1740.80;;;;;;5077251;28;19970;-79
2022/03/19 08:52:49;;;;;;;;;;;230.40;1766.40;;;;;;5076610;28;19911;-81
2022/03/19 08:55:15;;;;;;;;;;;230.50;1766.40;;;;;;5076033;28;19904;-80
2022/03/19 08:57:40;;;;;;;;;;;230.40;1766.40;;;;;;5076697;28;19912;-79
2022/03/19 09:00:07;;;;;;;;;;;230.70;1715.20;;;;;;5082235;28;19970;-78
2022/03/19 09:02:33;;;;;;;;;;;230.90;1715.20;;;;;;5087921;28;20386;-80
2022/03/19 09:04:58;;;;;;;;;;;230.80;1689.60;;;;;;5084891;28;19911;-80
2022/03/19 09:07:24;;;;;;;;;;;230.90;1664.00;;;;;;5084890;28;19904;-79
2022/03/19 09:09:52;;;;;;;;;;;230.80;1638.40;;;;;;5086724;28;20351;-79
2022/03/19 09:12:28;;;;;;;;;;;231.10;1664.00;;;;;;5085545;28;19911;-79
2022/03/19 09:14:53;;;;;;;;;;;231.20;1638.40;;;;;;5080610;28;19950;-79
2022/03/19 09:17:19;;;;;;;;;;;231.20;1587.20;;;;;;5086217;28;19920;-77
2022/03/19 09:19:45;;;;;;;;;;;231.30;1561.60;;;;;;5084408;28;19906;-78
2022/03/19 09:22:10;;;;;;;;;;;256.00;1536.00;;;;;;5076476;28;19991;-79
2022/03/19 09:24:36;;;;;;;;;;;256.00;1536.00;;;;;;5080352;28;19908;-80
2022/03/19 09:27:02;;;;;;;;;;;256.20;1536.00;;;;;;5085514;28;19908;-78
2022/03/19 09:29:28;;;;;;;;;;;256.40;1561.60;;;;;;5083624;28;20043;-78
2022/03/19 09:31:54;;;;;;;;;;;256.40;1510.40;;;;;;5083837;28;19908;-77
2022/03/19 09:34:20;;;;;;;;;;;256.60;1484.80;;;;;;5084915;28;19912;-76
2022/03/19 09:36:48;;;;;;;;;;;256.60;1459.20;;;;;;5077602;28;19923;-79
2022/03/19 09:39:14;;;;;;;;;;;256.90;1459.20;;;;;;5078939;28;19908;-80
2022/03/19 09:41:43;;;;;;;;;;;256.90;1459.20;;;;;;5084055;28;19908;-79
2022/03/19 09:44:12;;;;;;;;;;;281.70;1484.80;;;;;;5098425;28;19904;-78
2022/03/19 09:46:37;;;;;;;;;;;256.80;1408.00;;;;;;5090512;28;19910;-78
2022/03/19 09:49:03;;;;;;;;;;;281.80;1459.20;;;;;;5086861;28;19916;-79
2022/03/19 09:51:31;;;;;;;;;;;281.90;1433.60;;;;;;5082327;28;19921;-79
2022/03/19 09:53:57;;;;;;;;;;;281.90;1433.60;;;;;;5080291;28;19915;-80
2022/03/19 09:56:22;;;;;;;;;;;281.80;1408.00;;;;;;5082865;28;19916;-78
2022/03/19 09:58:48;;;;;;;;;;;281.90;1433.60;;;;;;5084639;28;19910;-79
2022/03/19 10:01:17;;;;;;;;;;;282.00;1382.40;;;;;;5075272;28;19915;-78
2022/03/19 10:03:42;;;;;;;;;;;282.00;1382.40;;;;;;5080120;28;20425;-79
2022/03/19 10:08:56;;;;;;;;;;;282.30;1382.40;;;;;;5095675;28;20040;-79
2022/03/19 10:11:22;;;;;;;;;;;307.30;1408.00;;;;;;5094586;28;19904;-79
2022/03/19 10:13:49;;;;;;;;;;;307.60;1382.40;;;;;;5085121;28;20375;-78
2022/03/19 10:16:19;;;;;;;;;;;307.40;1356.80;;;;;;5086776;28;19920;-78
2022/03/19 10:18:52;;;;;;;;;;;307.20;1356.80;;;;;;5082837;28;19955;-77
2022/03/19 10:21:19;;;;;;;;;;;307.40;1356.80;;;;;;5083800;28;20000;-79
2022/03/19 10:23:45;;;;;;;;;;;307.90;1356.80;;;;;;5088303;28;19904;-79
2022/03/19 10:26:30;;;;;;;;;;;332.80;1305.60;;;;;;5094313;28;19904;-78
2022/03/19 10:28:56;;;;;;;;;;;332.80;1305.60;;;;;;5094183;28;19957;-78
2022/03/19 10:31:32;;;;;;;;;;;333.00;1305.60;;;;;;5094017;28;19908;-78
2022/03/19 10:33:58;;;;;;;;;;;333.20;1305.60;;;;;;5094126;28;19937;-78
2022/03/19 10:36:53;;;;;;;;;;;332.90;1305.60;;;;;;5082794;28;19961;-78
2022/03/19 10:39:19;;;;;;;;;;;332.80;1280.00;;;;;;5021542;28;20020;-78
2022/03/19 10:41:45;;;;;;;;;;;333.00;1280.00;;;;;;5005299;28;19967;-77
2022/03/19 10:44:17;;;;;;;;;;;333.30;1228.80;;;;;;5024577;28;19909;-78
2022/03/19 10:46:46;;;;;;;;;;;333.30;1254.40;;;;;;5012096;28;19999;-78
2022/03/19 10:49:12;;;;;;;;;;;333.30;1254.40;;;;;;5033019;28;19912;-78
2022/03/19 10:51:40;;;;;;;;;;;333.50;1254.40;;;;;;5032697;28;19936;-78
2022/03/19 10:54:06;;;;;;;;;;;333.60;1228.80;;;;;;5032767;28;19988;-78
2022/03/19 10:56:32;;;;;;;;;;;358.50;1203.20;;;;;;5015915;28;19913;-80
2022/03/19 10:58:57;;;;;;;;;;;358.40;1228.80;;;;;;5004857;28;19909;-78
2022/03/19 11:01:23;;;;;;;;;;;333.60;1203.20;;;;;;5023093;28;19991;-78
2022/03/19 11:03:50;;;;;;;;;;;358.50;1177.60;;;;;;5005567;28;20000;-80
2022/03/19 11:06:19;;;;;;;;;;;358.70;1152.00;;;;;;5021679;28;20044;-79
2022/03/19 11:08:46;;;;;;;;;;;358.60;1203.20;;;;;;5026537;28;19909;-78
2022/03/19 11:11:18;;;;;;;;;;;358.80;1203.20;;;;;;5006528;28;19920;-79
2022/03/19 11:13:51;;;;;;;;;;;358.80;1177.60;;;;;;5006077;28;19906;-78
2022/03/19 11:16:18;;;;;;;;;;;358.60;1177.60;;;;;;5060188;28;20387;-79
2022/03/19 11:18:44;;;;;;;;;;;358.60;1203.20;;;;;;5081360;28;19958;-78
2022/03/19 11:21:10;;;;;;;;;;;359.20;1152.00;;;;;;5084386;28;19946;-77
2022/03/19 11:23:45;;;;;;;;;;;384.10;1126.40;;;;;;5078736;28;20275;-76
2022/03/19 11:26:12;;;;;;;;;;;384.20;1126.40;;;;;;5073330;28;19904;-77
2022/03/19 11:28:38;;;;;;;;;;;384.40;1075.20;;;;;;5084713;28;20090;-79
2022/03/19 11:31:10;;;;;;;;;;;384.60;1100.80;;;;;;5082468;28;19951;-77
2022/03/19 11:33:36;;;;;;;;;;;384.30;1100.80;;;;;;5082667;28;20364;-79
2022/03/19 11:36:03;;;;;;;;;;;384.90;1100.80;;;;;;5083912;28;20275;-78
2022/03/19 11:38:30;;;;;;;;;;;409.60;1100.80;;;;;;5075579;28;19950;-78
2022/03/19 11:40:56;;;;;;;;;;;384.40;1049.60;;;;;;5072845;28;19904;-81
2022/03/19 11:43:25;;;;;;;;;;;384.60;1049.60;;;;;;5073078;28;19939;-80
2022/03/19 11:45:57;;;;;;;;;;;409.60;1049.60;;;;;;5074133;28;19952;-78
2022/03/19 11:48:38;;;;;;;;;;;409.70;1024.00;;;;;;5072942;28;19908;-78
2022/03/19 11:51:23;;;;;;;;;;;384.50;1024.00;;;;;;5073904;28;19922;-79
2022/03/19 11:53:51;;;;;;;;;;;384.00;1049.60;;;;;;5072260;28;19911;-78
2022/03/19 11:56:20;;;;;;;;;;;384.40;1024.00;;;;;;5073853;28;19912;-78
2022/03/19 11:58:46;;;;;;;;;;;359.10;1049.60;;;;;;5072752;28;19939;-79
2022/03/19 12:01:13;;;;;;;;;;;384.00;1049.60;;;;;;5073749;28;19916;-78
2022/03/19 12:03:57;;;;;;;;;;;384.50;1024.00;;;;;;5072932;28;19908;-79
2022/03/19 12:06:33;;;;;;;;;;;384.70;1024.00;;;;;;5073815;28;19909;-78
2022/03/19 12:08:59;;;;;;;;;;;384.40;972.80;;;;;;5072514;28;19904;-78
2022/03/19 12:11:25;;;;;;;;;;;384.50;972.80;;;;;;5073101;28;19905;-79
2022/03/19 12:13:51;;;;;;;;;;;384.90;972.80;;;;;;5080585;28;19977;-78
2022/03/19 12:16:35;;;;;;;;;;;409.70;998.40;;;;;;5082844;28;19912;-78
2022/03/19 12:19:01;;;;;;;;;;;409.60;998.40;;;;;;5081172;28;19905;-77
2022/03/19 12:21:26;;;;;;;;;;;409.90;947.20;;;;;;5082532;28;19904;-78
2022/03/19 12:24:06;;;;;;;;;;;384.90;921.60;;;;;;5084250;28;19904;-77
2022/03/19 12:26:46;;;;;;;;;;;384.10;947.20;;;;;;5081847;28;19904;-79
2022/03/19 12:29:13;;;;;;;;;;;384.20;921.60;;;;;;5084251;28;19999;-79
2022/03/19 12:31:48;;;;;;;;;;;384.90;921.60;;;;;;5071166;28;20046;-79
2022/03/19 12:34:24;;;;;;;;;;;409.70;921.60;;;;;;5073036;28;19908;-79
2022/03/19 12:36:51;;;;;;;;;;;409.90;921.60;;;;;;5071365;28;19913;-80
2022/03/19 12:39:17;;;;;;;;;;;384.90;870.40;;;;;;5070329;28;19956;-78
2022/03/19 12:41:43;;;;;;;;;;;409.90;896.00;;;;;;5074535;28;19978;-79
2022/03/19 12:44:18;;;;;;;;;;;410.20;896.00;;;;;;5079580;28;19909;-78
2022/03/19 12:46:43;;;;;;;;;;;410.20;896.00;;;;;;5068331;28;19908;-78
2022/03/19 12:49:10;;;;;;;;;;;410.00;896.00;;;;;;5072904;28;19911;-77
2022/03/19 12:51:37;;;;;;;;;;;409.70;921.60;;;;;;5076751;28;19917;-77
2022/03/19 12:54:19;;;;;;;;;;;410.00;896.00;;;;;;5072879;28;19909;-77
2022/03/19 12:56:45;;;;;;;;;;;410.00;896.00;;;;;;5069715;28;19912;-77
2022/03/19 12:59:18;;;;;;;;;;;409.80;896.00;;;;;;5071356;28;20383;-76
2022/03/19 13:01:44;;;;;;;;;;;384.80;844.80;;;;;;5071114;28;19991;-76
2022/03/19 13:04:17;;;;;;;;;;;384.80;870.40;;;;;;5072748;28;20019;-79
2022/03/19 13:06:43;;;;;;;;;;;409.60;896.00;;;;;;5075435;28;19916;-77
2022/03/19 13:09:10;;;;;;;;;;;409.60;870.40;;;;;;5074822;28;19904;-76
2022/03/19 13:11:54;;;;;;;;;;;384.70;844.80;;;;;;5060936;28;19965;-76
2022/03/19 13:14:20;;;;;;;;;;;384.70;870.40;;;;;;5080773;28;20411;-76
2022/03/19 13:16:53;;;;;;;;;;;384.60;844.80;;;;;;5074750;28;19999;-77
2022/03/19 13:19:19;;;;;;;;;;;384.60;844.80;;;;;;5072242;28;19986;-79
2022/03/19 13:21:49;;;;;;;;;;;384.90;870.40;;;;;;5076198;28;19904;-76
2022/03/19 13:24:16;;;;;;;;;;;384.60;819.20;;;;;;5074686;28;19905;-75
2022/03/19 13:26:42;;;;;;;;;;;384.50;819.20;;;;;;5074607;28;20419;-78
2022/03/19 13:29:08;;;;;;;;;;;384.80;844.80;;;;;;5076132;28;20356;-79
2022/03/19 13:31:35;;;;;;;;;;;384.60;819.20;;;;;;5075779;28;20302;-77
2022/03/19 13:34:02;;;;;;;;;;;384.30;844.80;;;;;;5075948;28;20363;-78
2022/03/19 13:36:28;;;;;;;;;;;384.70;870.40;;;;;;5075671;28;20041;-79
2022/03/19 13:38:54;;;;;;;;;;;384.50;844.80;;;;;;5074353;28;19970;-78
2022/03/19 13:41:20;;;;;;;;;;;384.70;844.80;;;;;;5075666;28;20378;-79
2022/03/19 13:43:46;;;;;;;;;;;384.30;870.40;;;;;;5076881;28;19916;-77
2022/03/19 13:46:17;;;;;;;;;;;384.40;870.40;;;;;;5079698;28;20024;-78
2022/03/19 13:48:43;;;;;;;;;;;384.70;870.40;;;;;;5074249;28;19913;-76
2022/03/19 13:51:08;;;;;;;;;;;384.80;870.40;;;;;;5074367;28;19924;-77
2022/03/19 13:53:50;;;;;;;;;;;384.90;844.80;;;;;;5074064;28;19904;-77
2022/03/19 13:56:16;;;;;;;;;;;384.80;844.80;;;;;;5071265;28;19913;-77